Time;durP1;ratioP1;P1;durP2;ratioP2;P2;SDS_P1;SDS_P2;PMS_P1;PMS_P2;Temp;Humidity;BMP_temperature;BMP_pressure;BME280_temperature;BME280_humidity;BME280_pressure;Samples;Min_cycle;Max_cycle;Signal;HPM_P1;HPM_P2
2023/04/19 00:01:31;;;;;;;6.00;5.60;;;;;;;11.59;100.00;99050.47;5074823;28;20249;-69
2023/04/19 00:03:59;;;;;;;5.73;5.23;;;;;;;11.61;100.00;99051.94;5073402;28;20293;-69
2023/04/19 00:06:29;;;;;;;5.57;5.17;;;;;;;11.59;100.00;99051.28;5073379;28;20244;-69
2023/04/19 00:08:56;;;;;;;5.67;5.27;;;;;;;11.62;100.00;99045.56;5074599;28;20237;-69
2023/04/19 00:11:23;;;;;;;4.77;4.47;;;;;;;11.65;100.00;99045.16;5074652;28;20586;-69
2023/04/19 00:13:49;;;;;;;4.13;3.93;;;;;;;11.73;100.00;99042.25;5072102;28;20605;-69
2023/04/19 00:16:16;;;;;;;4.77;4.47;;;;;;;11.67;100.00;99043.06;5054426;28;20257;-69
2023/04/19 00:18:43;;;;;;;5.33;5.03;;;;;;;11.65;100.00;99029.19;5054005;28;20190;-69
2023/04/19 00:21:11;;;;;;;5.90;5.33;;;;;;;11.66;100.00;99028.16;5054090;28;20194;-69
2023/04/19 00:23:37;;;;;;;9.20;5.27;;;;;;;11.64;100.00;99024.88;5055300;28;20594;-69
2023/04/19 00:26:04;;;;;;;6.20;5.80;;;;;;;11.50;100.00;99012.66;5054435;28;20197;-70
2023/04/19 00:28:31;;;;;;;6.17;5.77;;;;;;;11.62;100.00;99018.16;5054563;28;20211;-69
2023/04/19 00:30:57;;;;;;;6.10;5.70;;;;;;;11.64;100.00;99016.91;5055258;28;20246;-69
2023/04/19 00:33:24;;;;;;;5.63;5.30;;;;;;;11.64;100.00;99018.75;5054366;28;20290;-69
2023/04/19 00:35:51;;;;;;;6.13;5.63;;;;;;;11.64;100.00;99010.78;5053783;28;20761;-69
2023/04/19 00:38:19;;;;;;;6.37;5.87;;;;;;;11.69;100.00;99013.59;5054083;28;20730;-69
2023/04/19 00:40:46;;;;;;;6.13;5.73;;;;;;;11.68;100.00;99012.78;5055835;28;20205;-69
2023/04/19 00:43:17;;;;;;;6.57;6.07;;;;;;;11.68;100.00;99011.97;5073577;28;20230;-68
2023/04/19 00:45:44;;;;;;;5.70;5.30;;;;;;;11.69;100.00;99014.44;5074151;28;20254;-69
2023/04/19 00:48:11;;;;;;;4.83;4.53;;;;;;;11.68;100.00;99014.66;5073501;28;20243;-69
2023/04/19 00:50:38;;;;;;;5.93;5.37;;;;;;;11.68;100.00;99015.44;5058346;28;20247;-69
2023/04/19 00:53:05;;;;;;;4.90;4.60;;;;;;;11.64;100.00;99016.91;5053375;28;20261;-69
2023/04/19 00:55:33;;;;;;;4.63;4.33;;;;;;;11.62;100.00;99013.66;5053861;28;20198;-69
2023/04/19 00:58:00;;;;;;;4.57;4.23;;;;;;;11.61;100.00;99012.03;5059071;28;20248;-69
2023/04/19 01:00:27;;;;;;;4.23;3.93;;;;;;;11.62;100.00;99012.81;5073637;28;20246;-69
2023/04/19 01:02:54;;;;;;;4.23;4.03;;;;;;;11.61;100.00;99006.72;5073187;28;20198;-70
2023/04/19 01:05:21;;;;;;;5.70;4.30;;;;;;;11.56;100.00;99009.13;5073604;28;20243;-69
2023/04/19 01:07:47;;;;;;;3.73;3.43;;;;;;;11.59;100.00;99014.03;5071775;28;20727;-69
2023/04/19 01:10:15;;;;;;;3.90;3.60;;;;;;;11.66;100.00;99004.22;5073334;28;20282;-69
2023/04/19 01:12:43;;;;;;;4.00;3.70;;;;;;;11.58;100.00;98996.47;5072709;28;20678;-70
2023/04/19 01:15:10;;;;;;;3.33;3.03;;;;;;;11.68;100.00;98999.47;5073059;28;20221;-69
2023/04/19 01:17:37;;;;;;;3.43;3.20;;;;;;;11.83;100.00;99000.00;5069945;28;20199;-70
2023/04/19 01:20:06;;;;;;;3.63;2.90;;;;;;;11.80;100.00;98997.75;5052978;28;20205;-70
2023/04/19 01:22:36;;;;;;;2.80;2.70;;;;;;;11.78;100.00;98994.50;5053048;28;20277;-70
2023/04/19 01:25:04;;;;;;;2.50;2.40;;;;;;;11.80;100.00;98992.44;5053510;28;20204;-69
2023/04/19 01:27:30;;;;;;;3.00;2.80;;;;;;;11.87;100.00;98984.41;5053835;28;20284;-69
2023/04/19 01:29:57;;;;;;;2.53;2.43;;;;;;;11.82;100.00;98982.41;5072715;28;20190;-69
2023/04/19 01:32:25;;;;;;;2.90;2.70;;;;;;;11.80;100.00;98983.66;5073064;28;20624;-68
2023/04/19 01:34:52;;;;;;;2.57;2.40;;;;;;;11.81;100.00;98980.78;5072844;28;20225;-69
2023/04/19 01:37:19;;;;;;;2.53;2.43;;;;;;;11.82;100.00;98982.41;5072562;28;20277;-69
2023/04/19 01:39:47;;;;;;;2.80;2.70;;;;;;;11.89;100.00;98983.19;5071729;28;20185;-68
2023/04/19 01:42:14;;;;;;;2.90;2.70;;;;;;;11.90;100.00;98976.81;5072860;28;20247;-68
2023/04/19 01:44:40;;;;;;;2.50;2.40;;;;;;;11.98;100.00;98971.22;5072780;28;20203;-69
2023/04/19 01:47:07;;;;;;;2.50;2.40;;;;;;;11.90;100.00;98960.03;5072410;28;20198;-68
2023/04/19 01:49:34;;;;;;;2.53;2.43;;;;;;;12.00;100.00;98977.13;5055375;28;20652;-68
2023/04/19 01:52:01;;;;;;;2.20;2.10;;;;;;;11.99;100.00;98972.84;5052738;28;20254;-69
2023/04/19 01:54:27;;;;;;;2.00;1.90;;;;;;;12.06;100.00;98968.28;5052231;28;20706;-68
2023/04/19 01:56:55;;;;;;;2.13;2.00;;;;;;;12.09;100.00;98973.16;5052698;28;20264;-68
2023/04/19 01:59:22;;;;;;;2.17;2.07;;;;;;;12.06;100.00;98965.63;5065187;28;20673;-69
2023/04/19 02:01:49;;;;;;;2.40;2.30;;;;;;;11.99;100.00;98967.53;5072709;28;20205;-68
2023/04/19 02:04:16;;;;;;;1.73;1.63;;;;;;;11.89;100.00;98961.91;5072443;28;20260;-68
2023/04/19 02:06:42;;;;;;;1.97;1.87;;;;;;;11.92;100.00;98957.97;5071271;28;20202;-68
2023/04/19 02:09:09;;;;;;;2.50;2.40;;;;;;;11.90;100.00;98963.50;5072343;28;20197;-69
2023/04/19 02:11:36;;;;;;;2.73;2.53;;;;;;;11.90;100.00;98965.34;5072182;28;20269;-69
2023/04/19 02:14:04;;;;;;;2.13;2.00;;;;;;;11.81;100.00;98948.84;5071807;28;20291;-69
2023/04/19 02:16:32;;;;;;;2.20;2.10;;;;;;;11.83;100.00;98959.25;5068483;28;20227;-68
2023/04/19 02:18:58;;;;;;;2.03;1.93;;;;;;;11.82;100.00;98963.78;5051726;28;20667;-69
2023/04/19 02:21:26;;;;;;;2.20;2.10;;;;;;;11.85;100.00;98955.38;5052414;28;20198;-70
2023/04/19 02:23:53;;;;;;;2.40;2.30;;;;;;;11.83;100.00;98952.09;5051322;28;20217;-69
2023/04/19 02:26:20;;;;;;;2.10;2.00;;;;;;;11.78;100.00;98949.28;5052674;28;20199;-70
2023/04/19 02:28:47;;;;;;;2.47;2.37;;;;;;;11.76;100.00;98946.00;5062343;28;20675;-70
2023/04/19 02:31:15;;;;;;;2.20;2.00;;;;;;;11.82;100.00;98947.81;5058161;28;20675;-69
2023/04/19 02:33:42;;;;;;;2.07;1.97;;;;;;;11.82;100.00;98939.84;5051603;28;20194;-70
2023/04/19 02:36:09;;;;;;;2.13;2.03;;;;;;;11.82;100.00;98950.47;5052088;28;20190;-69
2023/04/19 02:38:35;;;;;;;2.37;2.17;;;;;;;11.83;100.00;98949.44;5051961;28;20226;-70
2023/04/19 02:41:03;;;;;;;2.57;2.47;;;;;;;11.87;100.00;98945.31;5061845;28;20263;-70
2023/04/19 02:43:30;;;;;;;2.50;2.40;;;;;;;11.93;100.00;98941.81;5071632;28;20219;-70
2023/04/19 02:45:57;;;;;;;2.30;2.20;;;;;;;11.98;100.00;98936.63;5071779;28;20620;-70
2023/04/19 02:48:25;;;;;;;2.30;2.20;;;;;;;12.02;100.00;98935.16;5072178;28;20203;-69
2023/04/19 02:50:52;;;;;;;3.00;2.80;;;;;;;12.08;100.00;98938.81;5062828;28;20440;-69
2023/04/19 02:53:19;;;;;;;2.73;2.53;;;;;;;12.09;100.00;98938.56;5051854;28;20202;-69
2023/04/19 02:55:45;;;;;;;2.70;2.60;;;;;;;12.05;100.00;98933.91;5051718;28;20218;-70
2023/04/19 02:58:12;;;;;;;3.00;2.80;;;;;;;11.97;100.00;98940.31;5052062;28;20191;-69
2023/04/19 03:00:39;;;;;;;2.60;2.50;;;;;;;11.75;100.00;98944.38;5058583;28;20196;-69
2023/04/19 03:03:06;;;;;;;3.10;2.90;;;;;;;11.69;100.00;98945.28;5071549;28;20668;-70
2023/04/19 03:05:34;;;;;;;2.87;2.07;;;;;;;11.75;100.00;98951.53;5071430;28;20293;-69
2023/04/19 03:08:00;;;;;;;2.03;1.93;;;;;;;11.62;100.00;98939.16;5071774;28;20198;-70
2023/04/19 03:10:27;;;;;;;1.80;1.80;;;;;;;11.57;100.00;98951.44;5052482;28;20675;-69
2023/04/19 03:12:54;;;;;;;2.43;2.20;;;;;;;11.56;100.00;98949.81;5051347;28;20614;-70
2023/04/19 03:15:21;;;;;;;1.80;1.70;;;;;;;11.56;100.00;98940.00;5051526;28;20223;-69
2023/04/19 03:17:48;;;;;;;2.43;1.97;;;;;;;11.53;100.00;98944.94;5051652;28;20206;-70
2023/04/19 03:20:15;;;;;;;1.97;1.87;;;;;;;11.58;100.00;98948.59;5065149;28;20198;-70
2023/04/19 03:22:44;;;;;;;2.00;1.90;;;;;;;11.44;100.00;98939.06;5071764;28;20197;-70
2023/04/19 03:25:12;;;;;;;2.03;1.93;;;;;;;11.39;100.00;98941.53;5071746;28;20255;-70
2023/04/19 03:27:39;;;;;;;2.47;1.77;;;;;;;11.43;100.00;98944.59;5071247;28;20631;-71
2023/04/19 03:30:07;;;;;;;2.10;2.00;;;;;;;11.54;100.00;98943.91;5057739;28;20189;-70
2023/04/19 03:32:33;;;;;;;1.70;1.60;;;;;;;11.59;100.00;98944.88;5051491;28;20263;-70
2023/04/19 03:35:00;;;;;;;2.30;2.10;;;;;;;11.58;100.00;98943.25;5072661;28;20653;-70
2023/04/19 03:37:27;;;;;;;3.47;1.97;;;;;;;11.56;100.00;98950.63;5075377;28;20274;-70
2023/04/19 03:39:55;;;;;;;2.00;1.90;;;;;;;11.51;100.00;98947.81;5062945;28;20247;-70
2023/04/19 03:42:22;;;;;;;1.83;1.73;;;;;;;11.45;100.00;98943.34;5055842;28;20580;-70
2023/04/19 03:44:48;;;;;;;2.00;1.90;;;;;;;11.42;100.00;98946.44;5054932;28;20202;-70
2023/04/19 03:47:15;;;;;;;2.33;2.23;;;;;;;11.46;100.00;98944.97;5054906;28;20199;-70
2023/04/19 03:49:42;;;;;;;2.30;2.10;;;;;;;11.37;100.00;98938.28;5054832;28;20249;-71
2023/04/19 03:52:08;;;;;;;2.60;2.30;;;;;;;11.39;100.00;98933.56;5055447;28;20281;-69
2023/04/19 03:54:35;;;;;;;2.27;2.17;;;;;;;11.38;100.00;98941.75;5054476;28;20791;-70
2023/04/19 03:57:04;;;;;;;2.80;2.33;;;;;;;11.37;100.00;98938.28;5054424;28;20225;-70
2023/04/19 03:59:31;;;;;;;2.00;1.90;;;;;;;11.39;100.00;98948.72;5055833;28;20205;-70
2023/04/19 04:01:58;;;;;;;4.20;3.90;;;;;;;11.36;100.00;98949.97;5073659;28;20193;-69
2023/04/19 04:04:24;;;;;;;4.27;3.87;;;;;;;11.42;100.00;98946.44;5074736;28;20554;-69
2023/04/19 04:06:51;;;;;;;5.37;4.87;;;;;;;11.46;100.00;98949.47;5074436;28;20504;-69
2023/04/19 04:09:18;;;;;;;5.70;5.27;;;;;;;11.44;100.00;98947.06;5063522;28;20574;-70
2023/04/19 04:11:44;;;;;;;6.80;6.23;;;;;;;11.48;100.00;98937.63;5054436;28;20650;-69
2023/04/19 04:14:12;;;;;;;5.70;5.13;;;;;;;11.53;100.00;98948.41;5054327;28;20259;-70
2023/04/19 04:16:39;;;;;;;4.60;4.30;;;;;;;11.47;100.00;98943.94;5054212;28;20197;-70
2023/04/19 04:19:06;;;;;;;3.77;3.57;;;;;;;11.54;100.00;98947.38;5060858;28;20195;-70
2023/04/19 04:21:33;;;;;;;3.40;3.30;;;;;;;11.53;100.00;98943.09;5074144;28;20197;-69
2023/04/19 04:24:01;;;;;;;4.63;4.33;;;;;;;11.65;100.00;98945.91;5074130;28;20251;-70
2023/04/19 04:26:29;;;;;;;3.30;3.20;;;;;;;11.63;100.00;98947.97;5069111;28;20653;-69
2023/04/19 04:28:56;;;;;;;3.10;2.90;;;;;;;11.73;100.00;98951.78;5053949;28;20203;-70
2023/04/19 04:31:24;;;;;;;3.20;3.00;;;;;;;11.81;100.00;98945.38;5054208;28;20243;-70
2023/04/19 04:33:52;;;;;;;2.43;2.30;;;;;;;11.93;100.00;98946.28;5054167;28;20222;-69
2023/04/19 04:36:19;;;;;;;2.73;2.53;;;;;;;11.92;100.00;98942.81;5055383;28;20230;-78
2023/04/19 04:38:46;;;;;;;3.03;2.83;;;;;;;12.16;100.00;98943.84;5073722;28;20229;-80
2023/04/19 04:41:12;;;;;;;2.63;2.53;;;;;;;12.42;100.00;98955.03;5073651;28;20195;-80
2023/04/19 04:43:39;;;;;;;2.80;2.70;;;;;;;12.53;100.00;98954.28;5074157;28;20394;-68
2023/04/19 04:46:06;;;;;;;2.97;2.77;;;;;;;12.63;100.00;98962.59;5072408;28;20206;-69
2023/04/19 04:48:34;;;;;;;4.17;3.87;;;;;;;12.81;100.00;98951.94;5052912;28;20694;-71
2023/04/19 04:51:01;;;;;;;3.23;3.03;;;;;;;12.95;100.00;98956.06;5053192;28;20195;-69
2023/04/19 04:53:28;;;;;;;2.50;2.40;;;;;;;12.82;100.00;98953.56;5052951;28;20226;-66
2023/04/19 04:55:55;;;;;;;2.47;2.27;;;;;;;12.84;99.65;98956.81;5053251;28;20229;-67
2023/04/19 04:58:21;;;;;;;2.13;2.03;;;;;;;12.77;99.42;98960.59;5069358;28;20209;-68
2023/04/19 05:00:48;;;;;;;2.73;2.63;;;;;;;12.76;99.33;98959.78;5073500;28;20199;-71
2023/04/19 05:03:18;;;;;;;3.47;3.17;;;;;;;12.72;98.88;98966.59;5073354;28;20192;-74
2023/04/19 05:05:47;;;;;;;2.83;2.67;;;;;;;12.57;98.67;98941.38;5070759;28;20182;-76
2023/04/19 05:08:14;;;;;;;3.00;2.70;;;;;;;12.44;99.37;98938.81;5072317;28;20202;-75
2023/04/19 05:10:40;;;;;;;2.13;2.03;;;;;;;12.73;100.00;98957.56;5071820;28;20192;-75
2023/04/19 05:13:07;;;;;;;2.10;2.00;;;;;;;12.64;98.41;98948.25;5072401;28;20243;-73
2023/04/19 05:15:34;;;;;;;1.87;1.87;;;;;;;12.65;98.00;98952.53;5064565;28;20920;-73
2023/04/19 05:18:00;;;;;;;2.60;2.50;;;;;;;12.67;98.11;98971.78;5051693;28;20193;-74
2023/04/19 05:20:27;;;;;;;4.00;3.53;;;;;;;12.62;99.30;98958.28;5051596;28;20678;-74
2023/04/19 05:22:59;;;;;;;3.90;3.70;;;;;;;12.69;97.95;98964.38;5052153;28;20200;-73
2023/04/19 05:25:25;;;;;;;2.50;2.40;;;;;;;12.72;97.67;98958.59;5069483;28;20214;-73
2023/04/19 05:27:52;;;;;;;1.70;1.70;;;;;;;12.82;97.05;98966.09;5071144;28;20200;-73
2023/04/19 05:30:19;;;;;;;3.50;2.20;;;;;;;12.91;98.61;98968.19;5072055;28;20275;-76
2023/04/19 05:32:46;;;;;;;1.63;1.53;;;;;;;12.91;96.82;98968.19;5071793;28;20226;-75
2023/04/19 05:35:13;;;;;;;2.20;2.10;;;;;;;12.88;96.39;98971.34;5070399;28;20223;-74
2023/04/19 05:37:41;;;;;;;1.93;1.83;;;;;;;12.82;96.96;98964.22;5071766;28;20590;-72
2023/04/19 05:40:09;;;;;;;2.10;2.00;;;;;;;12.92;96.44;98969.03;5072783;28;20234;-72
2023/04/19 05:42:36;;;;;;;2.87;2.77;;;;;;;12.90;96.47;98968.44;5072140;28;20195;-73
2023/04/19 05:45:03;;;;;;;4.87;4.57;;;;;;;12.96;96.43;98973.69;5070750;28;20203;-72
2023/04/19 05:47:30;;;;;;;4.80;2.50;;;;;;;12.89;97.09;98966.81;5069540;28;20340;-71
2023/04/19 05:49:57;;;;;;;2.67;2.57;;;;;;;12.97;96.59;98972.69;5070997;28;20595;-70
2023/04/19 05:52:23;;;;;;;2.63;2.30;;;;;;;12.97;96.52;98974.50;5069510;28;20273;-71
2023/04/19 05:54:50;;;;;;;2.77;2.67;;;;;;;12.92;96.99;98969.03;5059265;28;20219;-71
2023/04/19 05:57:18;;;;;;;2.70;2.50;;;;;;;12.88;95.98;98941.19;5069987;28;20676;-70
2023/04/19 05:59:45;;;;;;;2.40;2.30;;;;;;;13.05;95.81;98972.38;5072060;28;20616;-71
2023/04/19 06:02:12;;;;;;;2.50;2.30;;;;;;;13.01;95.03;98968.53;5070603;28;20200;-70
2023/04/19 06:04:38;;;;;;;4.20;4.00;;;;;;;13.03;95.81;98969.09;5068159;28;20251;-72
2023/04/19 06:07:05;;;;;;;2.87;2.77;;;;;;;13.09;95.66;98967.41;5072433;28;20251;-70
2023/04/19 06:09:32;;;;;;;2.30;2.20;;;;;;;13.08;95.34;98942.59;5071114;28;20256;-73
2023/04/19 06:11:59;;;;;;;2.57;2.47;;;;;;;13.23;95.18;98972.34;5072037;28;20199;-73
2023/04/19 06:14:28;;;;;;;2.30;2.20;;;;;;;13.29;93.74;98966.13;5059452;28;20202;-75
2023/04/19 06:16:54;;;;;;;1.77;1.77;;;;;;;13.31;92.73;98964.03;5059941;28;20220;-73
2023/04/19 06:19:21;;;;;;;3.87;2.10;;;;;;;13.41;92.98;98964.31;5062006;28;20252;-77
2023/04/19 06:21:48;;;;;;;2.07;2.00;;;;;;;13.63;93.49;98973.41;5070799;28;20237;-77
2023/04/19 06:24:15;;;;;;;3.13;1.90;;;;;;;13.60;91.27;98965.84;5070059;28;20207;-69
2023/04/19 06:26:42;;;;;;;2.00;1.90;;;;;;;13.77;90.75;98969.50;5071655;28;20191;-71
2023/04/19 06:29:09;;;;;;;2.17;2.07;;;;;;;13.94;91.08;98970.47;5057562;28;20211;-61
2023/04/19 06:31:37;;;;;;;2.10;2.00;;;;;;;14.11;89.62;98968.75;5063726;28;20211;-71
2023/04/19 06:34:03;;;;;;;2.10;2.00;;;;;;;14.29;89.00;98966.00;5066990;28;20208;-61
2023/04/19 06:36:30;;;;;;;4.90;1.90;;;;;;;14.51;91.46;98967.06;5056294;28;20255;-61
2023/04/19 06:38:57;;;;;;;2.87;2.77;;;;;;;14.84;89.21;98972.56;5064491;28;20227;-63
2023/04/19 06:41:24;;;;;;;1.83;1.73;;;;;;;15.04;84.07;98983.66;5054484;28;20196;-61
2023/04/19 06:43:50;;;;;;;2.93;2.67;;;;;;;15.18;83.77;98979.69;5070592;28;20227;-61
2023/04/19 06:46:17;;;;;;;2.37;2.27;;;;;;;15.36;83.00;98987.56;5052692;28;20212;-61
2023/04/19 06:48:45;;;;;;;2.03;1.93;;;;;;;15.39;82.66;98987.09;5071385;28;20587;-63
2023/04/19 06:51:12;;;;;;;1.93;1.83;;;;;;;15.65;81.19;98999.88;5067242;28;20200;-64
2023/04/19 06:53:38;;;;;;;4.00;1.83;;;;;;;16.06;82.15;98989.88;5059027;28;20621;-62
2023/04/19 06:56:06;;;;;;;2.00;1.80;;;;;;;16.84;79.98;99003.94;5071856;28;20247;-63
2023/04/19 06:58:33;;;;;;;2.60;1.70;;;;;;;17.30;77.82;99011.50;5070306;28;20261;-63
2023/04/19 07:01:00;;;;;;;2.50;2.40;;;;;;;17.32;77.68;99009.41;5084960;28;20201;-63
2023/04/19 07:03:27;;;;;;;1.90;1.80;;;;;;;17.65;76.86;99015.44;5076561;28;20214;-63
2023/04/19 07:05:56;;;;;;;6.97;1.80;;;;;;;17.41;74.47;99013.28;5069359;28;20208;-63
2023/04/19 07:08:23;;;;;;;2.17;1.80;;;;;;;17.63;75.50;99016.75;5062809;28;20196;-62
2023/04/19 07:10:50;;;;;;;3.83;2.50;;;;;;;17.87;73.13;99016.19;5073470;28;20186;-63
2023/04/19 07:13:17;;;;;;;2.40;2.30;;;;;;;17.86;73.23;99016.44;5074944;28;20576;-64
2023/04/19 07:15:43;;;;;;;2.07;1.97;;;;;;;17.91;72.15;99020.00;5073643;28;20827;-65
2023/04/19 07:18:10;;;;;;;5.67;2.30;;;;;;;18.04;71.21;99014.22;5075114;28;20566;-63
2023/04/19 07:20:36;;;;;;;2.07;1.80;;;;;;;18.29;70.93;99021.69;5067820;28;20194;-61
2023/04/19 07:23:05;;;;;;;2.30;2.20;;;;;;;18.36;69.82;99016.91;5075372;28;20241;-62
2023/04/19 07:25:31;;;;;;;2.33;2.13;;;;;;;18.29;69.36;99017.09;5074754;28;20576;-62
2023/04/19 07:27:58;;;;;;;2.03;1.93;;;;;;;18.15;69.41;99021.31;5075124;28;20196;-62
2023/04/19 07:30:25;;;;;;;2.00;1.90;;;;;;;18.30;69.62;99023.31;5077265;28;20200;-62
2023/04/19 07:32:52;;;;;;;3.00;2.43;;;;;;;18.46;69.01;99019.69;5095400;28;20193;-63
2023/04/19 07:35:19;;;;;;;7.67;2.47;;;;;;;18.15;68.33;99017.78;5095187;28;20550;-63
2023/04/19 07:37:46;;;;;;;3.07;2.87;;;;;;;18.32;69.64;99021.16;5074990;28;20227;-63
2023/04/19 07:40:14;;;;;;;2.40;2.20;;;;;;;18.27;68.64;99031.88;5074570;28;20525;-63
2023/04/19 07:42:42;;;;;;;1.87;1.77;;;;;;;18.30;70.11;99023.31;5074643;28;20245;-61
2023/04/19 07:45:10;;;;;;;3.47;2.10;;;;;;;18.04;68.82;98997.25;5072868;28;20196;-62
2023/04/19 07:47:37;;;;;;;3.00;2.30;;;;;;;17.92;70.87;99023.50;5073466;28;20196;-64
2023/04/19 07:50:06;;;;;;;3.20;2.10;;;;;;;17.86;71.39;99025.34;5073887;28;20653;-63
2023/04/19 07:52:33;;;;;;;2.70;2.50;;;;;;;18.01;70.65;99030.84;5074406;28;20188;-63
2023/04/19 07:55:00;;;;;;;2.13;2.00;;;;;;;18.01;69.82;99033.53;5074379;28;20195;-61
2023/04/19 07:57:28;;;;;;;4.43;2.03;;;;;;;17.92;69.40;99031.56;5074084;28;20224;-62
2023/04/19 07:59:57;;;;;;;3.47;2.17;;;;;;;18.25;70.13;99025.97;5073763;28;20250;-63
2023/04/19 08:02:26;;;;;;;2.60;2.03;;;;;;;18.50;70.02;99034.25;5074232;28;20717;-60
2023/04/19 08:04:53;;;;;;;2.73;2.03;;;;;;;18.42;67.18;99048.19;5074157;28;20226;-62
2023/04/19 08:07:20;;;;;;;2.00;1.90;;;;;;;18.38;67.30;99036.31;5074001;28;20259;-62
2023/04/19 08:09:47;;;;;;;2.90;2.70;;;;;;;18.36;67.33;99038.44;5073360;28;20188;-62
2023/04/19 08:12:14;;;;;;;2.37;2.07;;;;;;;18.39;67.21;99044.13;5070137;28;20241;-62
2023/04/19 08:14:42;;;;;;;2.90;2.70;;;;;;;18.39;67.26;99037.91;5060866;28;20224;-61
2023/04/19 08:17:09;;;;;;;2.00;1.83;;;;;;;17.85;68.66;99037.13;5073053;28;20211;-62
2023/04/19 08:19:36;;;;;;;3.17;2.87;;;;;;;18.09;68.90;99032.25;5072406;28;20669;-62
2023/04/19 08:22:03;;;;;;;2.37;2.27;;;;;;;18.36;68.48;99027.66;5070128;28;20746;-63
2023/04/19 08:24:30;;;;;;;2.20;2.10;;;;;;;18.49;68.98;99028.06;5069327;28;20194;-62
2023/04/19 08:26:57;;;;;;;4.00;2.83;;;;;;;18.32;67.34;99030.03;5061133;28;20203;-62
2023/04/19 08:29:24;;;;;;;2.80;2.60;;;;;;;18.19;67.47;99033.16;5065018;28;20279;-61
2023/04/19 08:31:52;;;;;;;2.50;2.27;;;;;;;17.87;68.06;99028.81;5065929;28;20219;-63
2023/04/19 08:34:18;;;;;;;2.10;2.00;;;;;;;17.91;67.29;99028.06;5056411;28;20564;-62
2023/04/19 08:36:46;;;;;;;1.77;1.67;;;;;;;17.94;67.26;99030.25;5055416;28;20222;-63
2023/04/19 08:39:13;;;;;;;3.63;1.80;;;;;;;18.10;66.76;99033.88;5069056;28;20302;-63
2023/04/19 08:41:40;;;;;;;2.20;2.10;;;;;;;18.14;67.10;99030.44;5073094;28;20689;-65
2023/04/19 08:44:07;;;;;;;1.60;1.50;;;;;;;18.25;65.83;99034.03;5072754;28;20730;-71
2023/04/19 08:46:34;;;;;;;2.20;2.10;;;;;;;18.30;66.03;99026.00;5071196;28;20673;-69
2023/04/19 08:49:05;;;;;;;1.77;1.67;;;;;;;18.65;63.12;99031.66;5070602;28;20214;-70
2023/04/19 08:51:32;;;;;;;3.00;1.50;;;;;;;18.70;63.37;99034.41;5072124;28;20257;-70
2023/04/19 08:53:59;;;;;;;3.33;1.67;;;;;;;18.69;63.81;99016.59;5073168;28;20194;-71
2023/04/19 08:56:27;;;;;;;1.57;1.47;;;;;;;18.74;64.41;99027.44;5070036;28;20227;-73
2023/04/19 08:58:54;;;;;;;14.07;2.73;;;;;;;18.97;64.89;99013.53;5071492;28;20201;-71
2023/04/19 09:01:20;;;;;;;2.10;1.70;;;;;;;19.16;61.64;99020.91;5073610;28;20192;-72
2023/04/19 09:03:47;;;;;;;1.83;1.73;;;;;;;19.28;60.39;99031.50;5073218;28;20184;-71
2023/04/19 09:06:15;;;;;;;1.50;1.50;;;;;;;19.00;60.34;99021.09;5072469;28;20746;-71
2023/04/19 09:08:42;;;;;;;18.67;2.73;;;;;;;19.43;62.70;99013.50;5073245;28;20190;-71
2023/04/19 09:11:09;;;;;;;16.97;3.23;;;;;;;19.94;60.92;99014.44;5071750;28;20730;-71
2023/04/19 09:13:37;;;;;;;3.67;1.80;;;;;;;20.51;59.01;99026.59;5073287;28;20192;-75
2023/04/19 09:16:06;;;;;;;5.97;1.80;;;;;;;21.02;58.55;99026.56;5066941;28;20243;-74
2023/04/19 09:18:34;;;;;;;1.77;1.53;;;;;;;20.76;56.49;99033.06;5053248;28;20551;-75
2023/04/19 09:21:00;;;;;;;4.00;1.70;;;;;;;20.59;57.27;99022.56;5053488;28;20280;-74
2023/04/19 09:23:29;;;;;;;3.27;1.80;;;;;;;20.72;56.62;99034.69;5052761;28;20238;-73
2023/04/19 09:25:59;;;;;;;2.80;2.03;;;;;;;20.68;58.44;99023.63;5053130;28;20342;-66
2023/04/19 09:28:26;;;;;;;3.80;1.50;;;;;;;20.65;57.08;99032.25;5060977;28;20188;-65
2023/04/19 09:30:54;;;;;;;1.67;1.57;;;;;;;20.35;56.66;99035.00;5073121;28;20196;-65
2023/04/19 09:33:32;;;;;;;4.97;2.33;;;;;;;20.34;58.70;99017.19;5072575;28;20590;-66
2023/04/19 09:36:00;;;;;;;3.30;2.00;;;;;;;20.55;58.39;99013.41;5070143;28;20609;-65
2023/04/19 09:38:27;;;;;;;1.77;1.73;;;;;;;20.61;56.78;99020.41;5067856;28;20228;-65
2023/04/19 09:41:06;;;;;;;35.53;4.30;;;;;;;20.55;58.05;99016.88;5065309;28;20651;-64
2023/04/19 09:43:33;;;;;;;4.83;1.70;;;;;;;20.71;59.48;99006.91;5066519;28;20650;-63
2023/04/19 09:46:00;;;;;;;4.83;2.43;;;;;;;20.74;58.71;99014.44;5071906;28;20621;-63
2023/04/19 09:48:27;;;;;;;7.47;2.00;;;;;;;20.91;61.54;98998.78;5072614;28;20250;-62
2023/04/19 09:50:55;;;;;;;1.90;1.80;;;;;;;20.96;57.57;99006.88;5064601;28;20200;-62
2023/04/19 09:53:23;;;;;;;3.00;2.00;;;;;;;21.20;55.98;99013.28;5052229;28;20690;-62
2023/04/19 09:55:50;;;;;;;11.27;2.30;;;;;;;21.31;56.35;99004.03;5067977;28;20192;-63
2023/04/19 09:58:19;;;;;;;41.17;4.63;;;;;;;21.45;56.00;99010.47;5072404;28;20198;-64
2023/04/19 10:00:47;;;;;;;3.07;1.57;;;;;;;21.72;54.42;99010.88;5072304;28;20651;-63
2023/04/19 10:03:15;;;;;;;7.63;2.00;;;;;;;22.27;53.81;99007.78;5072147;28;20188;-64
2023/04/19 10:05:43;;;;;;;2.53;1.67;;;;;;;22.19;53.25;98999.44;5070643;28;20192;-63
2023/04/19 10:08:11;;;;;;;13.83;2.10;;;;;;;22.43;53.36;98998.44;5054544;28;20626;-63
2023/04/19 10:10:40;;;;;;;1.60;1.50;;;;;;;22.25;52.95;98999.13;5052379;28;20192;-63
2023/04/19 10:13:08;;;;;;;9.83;2.23;;;;;;;22.55;52.53;98990.78;5052096;28;20196;-64
2023/04/19 10:15:38;;;;;;;4.87;1.40;;;;;;;22.73;52.98;98987.34;5054972;28;20246;-63
2023/04/19 10:18:06;;;;;;;2.13;1.73;;;;;;;22.82;52.73;98982.13;5052068;28;20244;-63
2023/04/19 10:20:37;;;;;;;1.73;1.70;;;;;;;23.17;48.80;99000.66;5051913;28;20192;-64
2023/04/19 10:23:08;;;;;;;2.67;1.43;;;;;;;23.23;47.63;98984.06;5060808;28;20184;-63
2023/04/19 10:25:37;;;;;;;2.03;1.40;;;;;;;23.43;47.64;98967.56;5057643;28;20684;-63
2023/04/19 10:28:04;;;;;;;2.90;1.77;;;;;;;23.28;47.44;98965.03;5066841;28;20678;-63
2023/04/19 10:30:31;;;;;;;1.60;1.60;;;;;;;22.85;51.06;98955.25;5051777;28;20581;-63
2023/04/19 10:33:01;;;;;;;1.60;1.43;;;;;;;22.97;48.31;98961.06;5056366;28;20193;-63
2023/04/19 10:35:34;;;;;;;9.30;2.00;;;;;;;22.94;48.13;98953.50;5058246;28;20267;-63
2023/04/19 10:38:06;;;;;;;1.60;1.50;;;;;;;23.28;50.20;98946.06;5051375;28;20679;-62
2023/04/19 10:41:00;;;;;;;2.20;1.40;;;;;;;23.62;45.80;98968.38;5051943;28;20195;-63
2023/04/19 10:43:29;;;;;;;7.13;1.90;;;;;;;23.64;46.04;98957.25;5051569;28;20558;-63
2023/04/19 10:46:00;;;;;;;13.67;2.60;;;;;;;23.89;47.68;98951.44;5059502;28;20244;-63
2023/04/19 10:48:52;;;;;;;7.70;1.70;;;;;;;24.30;42.24;98965.97;5063421;28;20195;-62
2023/04/19 10:51:20;;;;;;;5.70;1.40;;;;;;;24.26;40.86;98959.53;5063305;28;20190;-66
2023/04/19 10:53:52;;;;;;;1.47;1.20;;;;;;;24.19;41.23;98954.50;5051413;28;20389;-66
2023/04/19 10:56:20;;;;;;;1.43;1.43;;;;;;;24.01;40.67;98951.81;5055688;28;20197;-65
2023/04/19 10:59:14;;;;;;;1.90;1.20;;;;;;;23.86;41.43;98955.53;5071320;28;20198;-65
2023/04/19 11:01:42;;;;;;;1.33;1.30;;;;;;;23.70;41.66;98943.31;5070678;28;20194;-66
2023/04/19 11:04:11;;;;;;;17.60;2.87;;;;;;;23.41;43.53;98948.06;5068877;28;20203;-65
2023/04/19 11:06:39;;;;;;;1.83;1.67;;;;;;;23.03;44.18;98940.16;5070638;28;20271;-72
2023/04/19 11:09:08;;;;;;;8.07;2.33;;;;;;;22.65;44.19;98941.94;5071261;28;20195;-71
2023/04/19 11:11:36;;;;;;;1.70;1.60;;;;;;;22.40;45.81;98944.06;5071718;28;20199;-71
2023/04/19 11:14:04;;;;;;;1.37;1.37;;;;;;;22.21;46.17;98935.06;5071195;28;20238;-71
2023/04/19 11:16:30;;;;;;;40.77;3.73;;;;;;;22.07;46.54;98937.59;5071360;28;20643;-70
2023/04/19 11:18:57;;;;;;;1.20;1.20;;;;;;;21.94;45.51;98940.16;5071260;28;20405;-71
2023/04/19 11:21:27;;;;;;;6.17;2.73;;;;;;;21.83;46.59;98931.31;5071352;28;20669;-70
2023/04/19 11:24:07;;;;;;;3.87;1.90;;;;;;;21.87;46.89;98931.53;5071559;28;20203;-71
2023/04/19 11:26:34;;;;;;;4.90;1.87;;;;;;;21.83;46.46;98925.91;5071542;28;20183;-70
2023/04/19 11:29:01;;;;;;;1.60;1.50;;;;;;;21.99;46.59;98930.09;5071176;28;20658;-72
2023/04/19 11:31:28;;;;;;;1.33;1.33;;;;;;;22.14;46.15;98915.63;5071719;28;20238;-71